createdAt,value
2023-05-13T00:00:02.319Z,99931.34
2023-05-13T00:02:33.990Z,99937.12
2023-05-13T00:05:02.621Z,99936.16
2023-05-13T00:07:30.995Z,99931.63
2023-05-13T00:09:59.381Z,99935.84
2023-05-13T00:12:27.923Z,99935.91
2023-05-13T00:14:57.603Z,99929.53
2023-05-13T00:17:26.296Z,99930.75
2023-05-13T00:19:55.224Z,99936.41
2023-05-13T00:22:23.580Z,99935.38
2023-05-13T00:24:52.004Z,99929.78
2023-05-13T00:27:20.576Z,99931.66
2023-05-13T00:29:48.909Z,99927.53
2023-05-13T00:32:18.643Z,99931.41
2023-05-13T00:34:47.261Z,99942.09
2023-05-13T00:37:15.712Z,99936.09
2023-05-13T00:39:43.973Z,99939.00
2023-05-13T00:42:13.739Z,99939.31
2023-05-13T00:44:42.458Z,99940.91
2023-05-13T00:47:11.264Z,99941.00
2023-05-13T00:49:41.499Z,99946.50
2023-05-13T00:52:10.059Z,99937.63
2023-05-13T00:54:39.761Z,99937.44
2023-05-13T00:57:08.350Z,99941.91
2023-05-13T00:59:40.206Z,99942.84
2023-05-13T01:02:10.707Z,99945.13
2023-05-13T01:04:42.607Z,99945.31
2023-05-13T01:07:13.774Z,99951.19
2023-05-13T01:09:46.519Z,99951.78
2023-05-13T01:12:17.429Z,99947.81
2023-05-13T01:14:46.632Z,99950.84
2023-05-13T01:17:16.254Z,99952.94
2023-05-13T01:19:45.819Z,99955.84
2023-05-13T01:22:15.886Z,99955.63
2023-05-13T01:24:45.755Z,99949.53
2023-05-13T01:27:14.112Z,99951.38
2023-05-13T01:29:42.398Z,99955.25
2023-05-13T01:32:12.003Z,99955.94
2023-05-13T01:34:40.778Z,99954.16
2023-05-13T01:37:09.180Z,99956.37
2023-05-13T01:39:40.037Z,99957.00
2023-05-13T01:42:09.315Z,99950.69
2023-05-13T01:44:40.028Z,99960.31
2023-05-13T01:47:08.380Z,99962.00
2023-05-13T01:49:36.780Z,99958.97
2023-05-13T01:52:05.780Z,99959.22
2023-05-13T01:54:34.110Z,99955.25
2023-05-13T01:57:04.402Z,99951.97
2023-05-13T01:59:33.032Z,99959.00
2023-05-13T02:02:01.552Z,99964.00
2023-05-13T02:04:30.342Z,99964.38
2023-05-13T02:06:59.291Z,99961.78
2023-05-13T02:09:28.382Z,99964.63
2023-05-13T02:11:56.994Z,99963.31
2023-05-13T02:14:26.756Z,99960.41
2023-05-13T02:16:56.011Z,99962.19
2023-05-13T02:19:24.861Z,99955.25
2023-05-13T02:21:53.448Z,99961.47
2023-05-13T02:24:22.056Z,99956.59
2023-05-13T02:26:50.422Z,99953.16
2023-05-13T02:29:19.345Z,99965.59
2023-05-13T02:31:49.076Z,99960.34
2023-05-13T02:34:17.622Z,99969.91
2023-05-13T02:36:46.244Z,99963.22
2023-05-13T02:39:14.580Z,99960.69
2023-05-13T02:41:44.490Z,99964.69
2023-05-13T02:44:13.139Z,99967.00
2023-05-13T02:46:44.144Z,99970.13
2023-05-13T02:49:14.229Z,99965.03
2023-05-13T02:51:42.548Z,99964.75
2023-05-13T02:54:11.054Z,99970.13
2023-05-13T02:56:40.110Z,99970.13
2023-05-13T02:59:08.639Z,99976.91
2023-05-13T03:01:37.163Z,99973.66
2023-05-13T03:04:06.196Z,99969.16
2023-05-13T03:06:35.858Z,99977.87
2023-05-13T03:09:04.244Z,99975.34
2023-05-13T03:11:34.243Z,99970.37
2023-05-13T03:14:02.579Z,99983.25
2023-05-13T03:16:31.001Z,99977.69
2023-05-13T03:18:59.737Z,99976.75
2023-05-13T03:21:28.203Z,99978.31
2023-05-13T03:23:58.191Z,99977.56
2023-05-13T03:26:27.020Z,99982.09
2023-05-13T03:28:56.147Z,99984.91
2023-05-13T03:31:24.712Z,99984.53
2023-05-13T03:33:53.395Z,99989.03
2023-05-13T03:36:22.018Z,99989.78
2023-05-13T03:38:51.193Z,99996.66
2023-05-13T03:41:21.188Z,99997.09
2023-05-13T03:43:49.834Z,100002.19
2023-05-13T03:46:18.469Z,100002.87
2023-05-13T03:48:47.146Z,100003.63
2023-05-13T03:51:16.012Z,99996.28
2023-05-13T03:53:44.512Z,99997.00
2023-05-13T03:56:15.112Z,100003.41
2023-05-13T03:58:46.088Z,100002.03
2023-05-13T04:01:14.729Z,100000.44
2023-05-13T04:03:45.397Z,100007.16
2023-05-13T04:06:14.619Z,100011.75
2023-05-13T04:08:43.540Z,100012.56
2023-05-13T04:11:11.822Z,100013.00
2023-05-13T04:13:40.539Z,100012.38
2023-05-13T04:16:10.504Z,100009.22
2023-05-13T04:18:38.997Z,100007.34
2023-05-13T04:21:07.711Z,100016.63
2023-05-13T04:23:36.405Z,100018.66
2023-05-13T04:26:04.742Z,100020.37
2023-05-13T04:28:33.957Z,100017.91
2023-05-13T04:31:03.048Z,100015.09
2023-05-13T04:33:33.693Z,100027.37
2023-05-13T04:36:02.049Z,100017.00
2023-05-13T04:38:34.271Z,100018.97
2023-05-13T04:41:02.915Z,100028.47
2023-05-13T04:43:32.163Z,100026.44
2023-05-13T04:46:01.705Z,100030.34
2023-05-13T04:48:30.440Z,100029.31
2023-05-13T04:51:00.875Z,100021.88
2023-05-13T04:53:30.291Z,100026.22
2023-05-13T04:56:00.953Z,100037.16
2023-05-13T04:58:29.592Z,100043.87
2023-05-13T05:00:58.397Z,100042.12
2023-05-13T05:03:27.191Z,100044.31
2023-05-13T05:05:55.709Z,100046.66
2023-05-13T05:08:26.290Z,100054.03
2023-05-13T05:10:54.972Z,100051.94
2023-05-13T05:13:24.133Z,100045.66
2023-05-13T05:15:52.498Z,100051.16
2023-05-13T05:18:21.244Z,100047.41
2023-05-13T05:20:49.969Z,100045.00
2023-05-13T05:23:18.656Z,100045.84
2023-05-13T05:25:53.228Z,100050.47
2023-05-13T05:28:29.837Z,100052.81
2023-05-13T05:30:58.573Z,100053.56
2023-05-13T05:33:27.208Z,100048.72
2023-05-13T05:35:55.615Z,100061.28
2023-05-13T05:38:25.368Z,100059.88
2023-05-13T05:40:55.289Z,100061.06
2023-05-13T05:43:23.931Z,100058.34
2023-05-13T05:45:53.072Z,100053.97
2023-05-13T05:48:21.615Z,100061.09
2023-05-13T05:50:50.431Z,100058.34
2023-05-13T05:53:19.397Z,100048.66
2023-05-13T05:55:48.002Z,100058.84
2023-05-13T05:58:18.716Z,100055.72
2023-05-13T06:00:47.185Z,100057.41
2023-05-13T06:03:15.965Z,100059.06
2023-05-13T06:05:44.395Z,100070.13
2023-05-13T06:08:13.475Z,100069.19
2023-05-13T06:10:42.088Z,100067.97
2023-05-13T06:13:10.449Z,100063.87
2023-05-13T06:15:40.264Z,100068.84
2023-05-13T06:18:09.002Z,100068.94
2023-05-13T06:20:37.421Z,100067.47
2023-05-13T06:23:05.796Z,100072.62
2023-05-13T06:25:34.390Z,100072.84
2023-05-13T06:28:03.136Z,100079.34
2023-05-13T06:30:31.774Z,100077.94
2023-05-13T06:33:02.641Z,100085.34
2023-05-13T06:35:31.436Z,100078.81
2023-05-13T06:38:00.318Z,100080.81
2023-05-13T06:40:29.299Z,100080.38
2023-05-13T06:42:57.903Z,100084.59
2023-05-13T06:45:29.739Z,100085.38
2023-05-13T06:47:58.583Z,100086.53
2023-05-13T06:50:28.417Z,100075.28
2023-05-13T06:53:01.105Z,100070.28
2023-05-13T06:55:29.480Z,100077.50
2023-05-13T06:57:58.063Z,100080.16
2023-05-13T07:00:26.601Z,100077.41
2023-05-13T07:02:54.958Z,100067.75
2023-05-13T07:05:23.681Z,100068.66
2023-05-13T07:07:53.819Z,100074.22
2023-05-13T07:10:22.447Z,100073.06
2023-05-13T07:12:51.418Z,100073.63
2023-05-13T07:15:20.058Z,100063.22
2023-05-13T07:17:48.682Z,100062.38
2023-05-13T07:20:22.134Z,100067.31
2023-05-13T07:22:51.084Z,100071.84
2023-05-13T07:25:21.051Z,100074.56
2023-05-13T07:27:49.358Z,100079.91
2023-05-13T07:30:17.787Z,100083.53
2023-05-13T07:32:46.393Z,100082.88
2023-05-13T07:35:16.680Z,100083.88
2023-05-13T07:37:48.490Z,100089.16
2023-05-13T07:40:17.912Z,100084.72
2023-05-13T07:42:48.110Z,100079.41
2023-05-13T07:45:16.781Z,100091.97
2023-05-13T07:47:45.150Z,100094.28
2023-05-13T07:50:13.543Z,100088.72
2023-05-13T07:52:42.279Z,100089.66
2023-05-13T07:55:10.953Z,100089.66
2023-05-13T07:57:39.246Z,100092.25
2023-05-13T08:00:10.086Z,100101.41
2023-05-13T08:02:41.111Z,100093.53
2023-05-13T08:05:10.163Z,100097.03
2023-05-13T08:07:38.609Z,100100.81
2023-05-13T08:10:07.691Z,100103.97
2023-05-13T08:12:36.599Z,100100.94
2023-05-13T08:15:06.020Z,100112.75
2023-05-13T08:17:35.869Z,100115.63
2023-05-13T08:20:04.603Z,100124.06
2023-05-13T08:22:33.903Z,100117.88
2023-05-13T08:25:03.379Z,100123.38
2023-05-13T08:27:32.272Z,100119.09
2023-05-13T08:30:00.700Z,100122.22
2023-05-13T08:32:29.047Z,100129.66
2023-05-13T08:34:59.390Z,100137.50
2023-05-13T08:37:27.753Z,100137.22
2023-05-13T08:39:57.608Z,100144.69
2023-05-13T08:42:26.445Z,100136.91
2023-05-13T08:44:54.813Z,100138.84
2023-05-13T08:47:26.225Z,100136.34
2023-05-13T08:49:54.903Z,100135.94
2023-05-13T08:52:24.601Z,100148.94
2023-05-13T08:54:52.901Z,100134.19
2023-05-13T08:57:21.644Z,100138.47
2023-05-13T08:59:49.995Z,100130.78
2023-05-13T09:02:18.731Z,100133.47
2023-05-13T09:04:47.673Z,100135.97
2023-05-13T09:07:16.042Z,100132.81
2023-05-13T09:09:45.731Z,100128.44
2023-05-13T09:12:14.373Z,100134.63
2023-05-13T09:14:43.144Z,100132.88
2023-05-13T09:17:11.502Z,100139.78
2023-05-13T09:19:40.201Z,100130.81
2023-05-13T09:22:14.518Z,100136.56
2023-05-13T09:24:45.429Z,100131.13
2023-05-13T09:27:13.796Z,100131.59
2023-05-13T09:29:42.147Z,100129.97
2023-05-13T09:32:10.720Z,100132.97
2023-05-13T09:34:39.656Z,100126.91
2023-05-13T09:37:09.096Z,100130.72
2023-05-13T09:39:39.850Z,100137.84
2023-05-13T09:42:13.633Z,100138.38
2023-05-13T09:44:42.173Z,100134.28
2023-05-13T09:47:12.366Z,100131.81
2023-05-13T09:49:41.629Z,100137.59
2023-05-13T09:52:11.830Z,100134.25
2023-05-13T09:54:40.417Z,100131.03
2023-05-13T09:57:08.719Z,100133.16
2023-05-13T09:59:38.676Z,100129.03
2023-05-13T10:02:07.426Z,100118.31
2023-05-13T10:04:36.311Z,100124.91
2023-05-13T10:07:05.229Z,100126.59
2023-05-13T10:09:35.934Z,100128.72
2023-05-13T10:12:05.045Z,100133.62
2023-05-13T10:14:33.392Z,100127.97
2023-05-13T10:17:03.174Z,100124.16
2023-05-13T10:19:31.848Z,100124.22
2023-05-13T10:22:00.166Z,100126.81
2023-05-13T10:24:29.075Z,100124.44
2023-05-13T10:26:57.722Z,100121.41
2023-05-13T10:29:26.085Z,100118.75
2023-05-13T10:31:54.457Z,100118.75
2023-05-13T10:34:24.513Z,100117.69
2023-05-13T10:37:05.137Z,100119.63
2023-05-13T10:39:38.608Z,100123.50
2023-05-13T10:42:17.814Z,100126.88
2023-05-13T10:44:46.461Z,100123.81
2023-05-13T10:47:14.776Z,100129.53
2023-05-13T10:49:48.141Z,100130.69
2023-05-13T10:52:16.826Z,100130.44
2023-05-13T10:54:45.259Z,100134.00
2023-05-13T10:57:13.576Z,100134.44
2023-05-13T10:59:50.552Z,100137.25
2023-05-13T11:02:21.953Z,100138.28
2023-05-13T11:05:00.443Z,100132.25
2023-05-13T11:07:29.727Z,100131.69
2023-05-13T11:09:58.373Z,100129.66
2023-05-13T11:12:26.644Z,100126.72
2023-05-13T11:14:56.587Z,100127.56
2023-05-13T11:17:25.264Z,100125.72
2023-05-13T11:19:53.857Z,100126.31
2023-05-13T11:22:24.712Z,100127.19
2023-05-13T11:25:06.436Z,100119.47
2023-05-13T11:27:35.213Z,100126.22
2023-05-13T11:30:04.709Z,100122.75
2023-05-13T11:32:53.307Z,100127.19
2023-05-13T11:35:22.088Z,100133.25
2023-05-13T11:37:51.821Z,100130.56
2023-05-13T11:40:23.757Z,100120.25
2023-05-13T11:42:52.531Z,100134.19
2023-05-13T11:45:39.630Z,100131.28
2023-05-13T11:48:18.973Z,100132.00
2023-05-13T11:50:47.372Z,100133.22
2023-05-13T11:53:22.114Z,100137.28
2023-05-13T11:55:50.451Z,100143.00
2023-05-13T11:58:19.028Z,100137.69
2023-05-13T12:00:47.307Z,100146.59
2023-05-13T12:03:16.532Z,100137.41
2023-05-13T12:05:45.211Z,100141.19
2023-05-13T12:08:13.564Z,100142.84
2023-05-13T12:10:45.437Z,100142.34
2023-05-13T12:13:13.743Z,100137.47
2023-05-13T12:15:42.559Z,100144.94
2023-05-13T12:18:11.148Z,100141.81
2023-05-13T12:20:39.565Z,100138.47
2023-05-13T12:23:08.287Z,100145.34
2023-05-13T12:25:40.707Z,100150.69
2023-05-13T12:28:11.893Z,100147.97
2023-05-13T12:30:40.945Z,100149.56
2023-05-13T12:33:13.860Z,100144.53
2023-05-13T12:35:42.121Z,100149.94
2023-05-13T12:38:15.192Z,100155.06
2023-05-13T12:40:43.487Z,100154.22
2023-05-13T12:43:14.171Z,100149.59
2023-05-13T12:45:44.932Z,100148.38
2023-05-13T12:48:14.487Z,100153.31
2023-05-13T12:50:42.794Z,100150.00
2023-05-13T12:53:11.210Z,100143.50
2023-05-13T12:55:40.260Z,100145.66
2023-05-13T12:58:11.028Z,100153.19
2023-05-13T13:00:41.105Z,100147.66
2023-05-13T13:03:09.617Z,100143.44
2023-05-13T13:05:38.064Z,100147.84
2023-05-13T13:08:06.802Z,100144.59
2023-05-13T13:10:35.140Z,100141.50
2023-05-13T13:13:03.544Z,100141.09
2023-05-13T13:15:32.186Z,100146.84
2023-05-13T13:18:02.257Z,100138.94
2023-05-13T13:20:30.670Z,100142.69
2023-05-13T13:23:18.145Z,100139.47
2023-05-13T13:25:46.435Z,100140.22
2023-05-13T13:28:15.046Z,100138.03
2023-05-13T13:30:46.606Z,100137.72
2023-05-13T13:33:17.028Z,100133.13
2023-05-13T13:35:45.475Z,100137.62
2023-05-13T13:38:14.058Z,100137.12
2023-05-13T13:40:42.619Z,100137.50
2023-05-13T13:43:10.931Z,100135.13
2023-05-13T13:45:39.269Z,100139.19
2023-05-13T13:48:08.401Z,100141.78
2023-05-13T13:50:38.257Z,100148.38
2023-05-13T13:53:06.637Z,100142.81
2023-05-13T13:55:35.207Z,100138.00
2023-05-13T13:58:03.576Z,100133.09
2023-05-13T14:00:31.911Z,100136.75
2023-05-13T14:03:02.582Z,100126.75
2023-05-13T14:05:31.120Z,100120.97
2023-05-13T14:08:00.926Z,100118.81
2023-05-13T14:10:29.621Z,100123.62
2023-05-13T14:12:57.960Z,100125.41
2023-05-13T14:15:28.847Z,100125.53
2023-05-13T14:17:57.599Z,100125.22
2023-05-13T14:20:28.787Z,100120.50
2023-05-13T14:22:57.231Z,100117.75
2023-05-13T14:25:27.605Z,100112.47
2023-05-13T14:27:56.009Z,100108.81
2023-05-13T14:30:24.527Z,100104.19
2023-05-13T14:32:53.249Z,100111.25
2023-05-13T14:35:21.556Z,100105.25
2023-05-13T14:37:49.839Z,100102.63
2023-05-13T14:40:18.471Z,100101.41
2023-05-13T14:42:49.440Z,100106.28
2023-05-13T14:45:18.760Z,100103.94
2023-05-13T14:47:47.318Z,100098.56
2023-05-13T14:50:16.109Z,100095.81
2023-05-13T14:52:44.678Z,100106.78
2023-05-13T14:55:14.051Z,100103.84
2023-05-13T14:57:42.346Z,100103.22
2023-05-13T15:00:13.072Z,100103.12
2023-05-13T15:02:41.504Z,100095.53
2023-05-13T15:05:09.989Z,100097.66
2023-05-13T15:07:38.550Z,100100.00
2023-05-13T15:10:07.497Z,100104.28
2023-05-13T15:12:35.881Z,100096.50
2023-05-13T15:15:04.768Z,100098.09
2023-05-13T15:17:34.490Z,100093.03
2023-05-13T15:20:03.015Z,100098.06
2023-05-13T15:22:34.018Z,100102.22
2023-05-13T15:25:02.701Z,100103.00
2023-05-13T15:27:31.010Z,100093.97
2023-05-13T15:29:59.576Z,100098.59
2023-05-13T15:32:27.907Z,100104.72
2023-05-13T15:34:57.648Z,100100.94
2023-05-13T15:37:26.211Z,100107.34
2023-05-13T15:39:55.608Z,100108.34
2023-05-13T15:42:24.005Z,100114.16
2023-05-13T15:44:52.644Z,100106.13
2023-05-13T15:47:21.122Z,100105.00
2023-05-13T15:49:50.803Z,100106.78
2023-05-13T15:52:20.844Z,100103.62
2023-05-13T15:54:49.173Z,100106.09
2023-05-13T15:57:19.131Z,100110.00
2023-05-13T15:59:47.808Z,100108.72
2023-05-13T16:02:18.339Z,100106.41
2023-05-13T16:04:47.073Z,100110.47
2023-05-13T16:07:15.464Z,100103.06
2023-05-13T16:09:45.129Z,100112.59
2023-05-13T16:12:13.815Z,100112.81
2023-05-13T16:14:42.764Z,100114.28
2023-05-13T16:17:11.173Z,100114.53
2023-05-13T16:19:39.771Z,100113.97
2023-05-13T16:22:30.510Z,100113.31
2023-05-13T16:25:01.802Z,100103.94
2023-05-13T16:27:30.448Z,100096.00
2023-05-13T16:29:59.348Z,100097.53
2023-05-13T16:32:27.735Z,100095.69
2023-05-13T16:34:56.416Z,100094.13
2023-05-13T16:37:25.001Z,100092.94
2023-05-13T16:39:53.547Z,100095.53
2023-05-13T16:42:23.411Z,100090.81
2023-05-13T16:44:52.590Z,100095.59
2023-05-13T16:47:21.866Z,100086.56
2023-05-13T16:49:50.972Z,100089.88
2023-05-13T16:52:19.499Z,100094.44
2023-05-13T16:54:47.943Z,100091.69
2023-05-13T16:57:16.391Z,100087.25
2023-05-13T16:59:46.423Z,100081.25
2023-05-13T17:02:14.866Z,100074.97
2023-05-13T17:04:43.620Z,100076.09
2023-05-13T17:07:12.323Z,100077.06
2023-05-13T17:09:40.850Z,100080.47
2023-05-13T17:12:09.465Z,100084.63
2023-05-13T17:14:38.088Z,100084.44
2023-05-13T17:17:07.955Z,100085.72
2023-05-13T17:19:36.284Z,100090.84
2023-05-13T17:22:05.001Z,100086.09
2023-05-13T17:24:33.340Z,100087.44
2023-05-13T17:27:01.815Z,100083.53
2023-05-13T17:29:30.412Z,100075.16
2023-05-13T17:31:58.725Z,100073.12
2023-05-13T17:34:28.411Z,100069.91
2023-05-13T17:36:56.977Z,100068.09
2023-05-13T17:39:25.442Z,100065.09
2023-05-13T17:41:53.838Z,100067.50
2023-05-13T17:44:23.971Z,100070.91
2023-05-13T17:46:52.498Z,100075.00
2023-05-13T17:49:20.978Z,100070.91
2023-05-13T17:51:51.274Z,100069.44
2023-05-13T17:54:19.600Z,100075.09
2023-05-13T17:56:47.934Z,100083.78
2023-05-13T17:59:16.598Z,100081.72
2023-05-13T18:01:45.343Z,100085.38
2023-05-13T18:04:14.001Z,100081.91
2023-05-13T18:06:42.299Z,100091.44
2023-05-13T18:09:11.978Z,100087.63
2023-05-13T18:11:40.615Z,100071.44
2023-05-13T18:14:09.129Z,100070.91
2023-05-13T18:16:37.562Z,100072.91
2023-05-13T18:19:06.887Z,100067.13
2023-05-13T18:21:35.349Z,100068.16
2023-05-13T18:24:03.711Z,100075.44
2023-05-13T18:26:33.703Z,100080.41
2023-05-13T18:29:02.034Z,100082.25
2023-05-13T18:31:34.671Z,100083.41
2023-05-13T18:34:03.882Z,100086.06
2023-05-13T18:36:34.904Z,100087.38
2023-05-13T18:39:03.846Z,100092.06
2023-05-13T18:41:33.582Z,100104.59
2023-05-13T18:44:02.072Z,100104.38
2023-05-13T18:46:30.876Z,100106.53
2023-05-13T18:49:00.408Z,100103.12
2023-05-13T18:51:28.889Z,100104.25
2023-05-13T18:53:57.516Z,100105.94
2023-05-13T18:56:26.271Z,100110.69
2023-05-13T18:58:56.248Z,100108.25
2023-05-13T19:01:25.096Z,100112.03
2023-05-13T19:03:53.998Z,100110.41
2023-05-13T19:06:22.677Z,100115.22
2023-05-13T19:08:51.634Z,100115.66
2023-05-13T19:11:20.055Z,100115.16
2023-05-13T19:13:48.641Z,100119.59
2023-05-13T19:16:19.135Z,100119.28
2023-05-13T19:18:47.863Z,100117.53
2023-05-13T19:21:16.618Z,100115.41
2023-05-13T19:23:44.972Z,100115.81
2023-05-13T19:26:13.830Z,100114.41
2023-05-13T19:28:43.835Z,100122.63
2023-05-13T19:31:12.409Z,100117.34
2023-05-13T19:33:43.403Z,100114.94
2023-05-13T19:36:13.393Z,100106.34
2023-05-13T19:38:41.731Z,100107.28
2023-05-13T19:41:10.118Z,100109.34
2023-05-13T19:43:38.727Z,100112.78
2023-05-13T19:46:07.253Z,100111.06
2023-05-13T19:48:35.734Z,100112.50
2023-05-13T19:51:06.218Z,100115.97
2023-05-13T19:53:34.575Z,100108.34
2023-05-13T19:56:02.879Z,100112.34
2023-05-13T19:58:31.528Z,100118.37
2023-05-13T20:00:59.829Z,100111.56
2023-05-13T20:03:28.498Z,100109.97
2023-05-13T20:05:57.226Z,100109.25
2023-05-13T20:08:29.563Z,100110.84
2023-05-13T20:10:58.433Z,100107.91
2023-05-13T20:13:26.837Z,100104.78
2023-05-13T20:15:55.226Z,100102.72
2023-05-13T20:18:24.096Z,100100.19
2023-05-13T20:20:53.781Z,100106.13
2023-05-13T20:23:22.068Z,100109.91
2023-05-13T20:25:52.805Z,100114.56
2023-05-13T20:28:21.210Z,100121.59
2023-05-13T20:30:52.418Z,100120.12
2023-05-13T20:33:21.097Z,100119.06
2023-05-13T20:35:49.749Z,100117.16
2023-05-13T20:38:18.186Z,100105.06
2023-05-13T20:40:47.456Z,100095.75
2023-05-13T20:43:17.474Z,100093.16
2023-05-13T20:45:46.057Z,100090.28
2023-05-13T20:48:14.790Z,100084.72
2023-05-13T20:50:43.181Z,100082.50
2023-05-13T20:53:11.537Z,100095.81
2023-05-13T20:55:40.123Z,100091.97
2023-05-13T20:58:08.439Z,100091.72
2023-05-13T21:00:38.123Z,100088.75
2023-05-13T21:03:06.815Z,100095.25
2023-05-13T21:05:35.311Z,100089.72
2023-05-13T21:08:03.626Z,100089.66
2023-05-13T21:10:32.297Z,100091.03
2023-05-13T21:13:01.280Z,100091.47
2023-05-13T21:15:29.720Z,100088.72
2023-05-13T21:17:59.770Z,100083.38
2023-05-13T21:20:28.235Z,100085.06
2023-05-13T21:22:56.558Z,100088.22
2023-05-13T21:25:25.177Z,100089.22
2023-05-13T21:27:53.570Z,100087.13
2023-05-13T21:30:22.090Z,100082.13
2023-05-13T21:32:50.867Z,100079.00
2023-05-13T21:35:20.675Z,100077.25
2023-05-13T21:37:49.715Z,100079.50
2023-05-13T21:40:19.561Z,100086.62
2023-05-13T21:42:47.911Z,100079.84
2023-05-13T21:45:16.365Z,100078.88
2023-05-13T21:47:45.100Z,100071.00
2023-05-13T21:50:13.461Z,100071.34
2023-05-13T21:52:43.288Z,100072.84
2023-05-13T21:55:12.034Z,100076.50
2023-05-13T21:57:40.582Z,100066.84
2023-05-13T22:00:10.764Z,100062.59
2023-05-13T22:02:45.124Z,100050.50
2023-05-13T22:05:14.298Z,100052.03
2023-05-13T22:07:43.972Z,100052.62
2023-05-13T22:10:12.503Z,100049.31
2023-05-13T22:12:44.188Z,100050.66
2023-05-13T22:15:12.766Z,100046.00
2023-05-13T22:17:41.496Z,100056.28
2023-05-13T22:20:10.533Z,100053.13
2023-05-13T22:22:38.904Z,100058.13
2023-05-13T22:25:09.308Z,100053.81
2023-05-13T22:27:37.642Z,100053.13
2023-05-13T22:30:06.654Z,100056.25
2023-05-13T22:32:36.960Z,100061.34
2023-05-13T22:35:05.779Z,100059.12
2023-05-13T22:37:34.336Z,100054.44
2023-05-13T22:40:03.010Z,100055.16
2023-05-13T22:42:32.704Z,100061.00
2023-05-13T22:45:01.090Z,100055.72
2023-05-13T22:47:30.367Z,100055.97
2023-05-13T22:49:58.764Z,100055.66
2023-05-13T22:52:27.081Z,100042.41
2023-05-13T22:54:56.008Z,100051.84
2023-05-13T22:57:26.429Z,100045.00
2023-05-13T22:59:56.110Z,100044.84
2023-05-13T23:02:24.827Z,100044.47
2023-05-13T23:04:53.335Z,100035.56
2023-05-13T23:07:21.663Z,100043.50
2023-05-13T23:09:50.377Z,100035.34
2023-05-13T23:12:18.647Z,100041.72
2023-05-13T23:14:46.986Z,100039.94
2023-05-13T23:17:16.840Z,100044.59
2023-05-13T23:19:45.186Z,100038.69
2023-05-13T23:22:13.541Z,100035.28
2023-05-13T23:24:42.106Z,100039.66
2023-05-13T23:27:10.396Z,100037.34
2023-05-13T23:29:38.720Z,100034.97
2023-05-13T23:32:07.485Z,100031.38
2023-05-13T23:34:37.205Z,100020.72
2023-05-13T23:37:05.829Z,100032.53
2023-05-13T23:39:37.489Z,100026.69
2023-05-13T23:42:05.921Z,100029.94
2023-05-13T23:44:34.578Z,100026.94
2023-05-13T23:47:03.439Z,100023.63
2023-05-13T23:49:31.727Z,100015.38
2023-05-13T23:52:01.751Z,100012.69
2023-05-13T23:54:30.014Z,100016.50
2023-05-13T23:56:58.333Z,100011.72
2023-05-13T23:59:27.049Z,100005.84
